73  °F
Temperature
64  °F
  Dewpoint
74  %
   Humidity
Temp | Dewpoint | Humidity
10  km/h
Wind Speed
6  mph
Wind Speed
5  kts
Wind Speed
210°
South South
West

Wind Speed
Mostly Scattered
Clouds
Pressure 1012.92 (hPa) - 29.91 (in)
Visibility 10.0 (mi) - 16.1 (km)

Current Conditions
KBHC
Location Baxley Municipal 6km (3.2mi)
Metar :KBHC 172215Z AUTO 21005KT 10SM SCT029 SCT038 OVC070 23/18 A2991 RMK AO2
Wed 31st December 14:00 pm

Airport
  Metar Aviation API Data Provided by https://www.checkwx.com/ CSS/SVG/PHP scripts by weather34.com © 2015-2019